Time;durP1;ratioP1;P1;durP2;ratioP2;P2;SDS_P1;SDS_P2;PMS_P1;PMS_P2;Temp;Humidity;BMP_temperature;BMP_pressure;BME280_temperature;BME280_humidity;BME280_pressure;Samples;Min_cycle;Max_cycle;Signal;HPM_P1;HPM_P2
2022/12/29 00:01:31;;;;;;;1.42;0.70;;;;;;;9.34;84.55;99920.38;5042359;28;20402;-79
2022/12/29 00:03:56;;;;;;;2.65;0.75;;;;;;;9.25;86.97;99909.06;5057801;28;20037;-80
2022/12/29 00:06:22;;;;;;;2.88;0.50;;;;;;;9.14;87.56;99896.03;5043365;28;20128;-78
2022/12/29 00:08:47;;;;;;;3.05;0.70;;;;;;;9.12;88.03;99906.59;5037770;28;20033;-79
2022/12/29 00:11:24;;;;;;;1.58;0.57;;;;;;;9.08;88.36;99890.84;5044286;28;20037;-79
2022/12/29 00:16:35;;;;;;;3.72;0.90;;;;;;;9.04;89.99;99874.22;5040084;28;20044;-79
2022/12/29 00:19:01;;;;;;;1.67;0.60;;;;;;;8.99;91.17;99874.25;5041446;28;20491;-79
2022/12/29 00:35:29;;;;;;;2.20;0.90;;;;;;;8.92;93.47;99853.28;5040061;28;20102;-80
2022/12/29 00:46:10;;;;;;;1.42;0.43;;;;;;;8.94;94.60;99846.25;5037822;28;20512;-78
2022/12/29 00:51:20;;;;;;;2.22;0.80;;;;;;;8.92;96.04;99834.84;5041707;28;20050;-79
2022/12/29 00:53:45;;;;;;;1.70;0.70;;;;;;;8.93;95.62;99832.22;5041098;28;20040;-78
2022/12/29 00:56:10;;;;;;;2.72;0.65;;;;;;;8.94;95.78;99831.31;5042509;28;20037;-79
2022/12/29 00:58:35;;;;;;;0.82;0.40;;;;;;;8.92;95.02;99832.22;5041840;28;20040;-79
2022/12/29 01:01:03;;;;;;;2.33;0.90;;;;;;;8.95;95.42;99832.19;5040414;28;20045;-79
2022/12/29 01:03:28;;;;;;;1.63;0.45;;;;;;;8.95;95.28;99832.19;5042416;28;20033;-78
2022/12/29 01:05:53;;;;;;;2.92;0.70;;;;;;;8.97;94.46;99826.00;5041127;28;20041;-79
2022/12/29 01:08:19;;;;;;;2.30;0.77;;;;;;;8.89;95.89;99811.22;5043804;28;20053;-79
2022/12/29 01:10:44;;;;;;;3.38;0.70;;;;;;;8.97;95.04;99825.16;5040969;28;20078;-78
2022/12/29 01:13:10;;;;;;;2.22;0.68;;;;;;;8.99;94.55;99823.38;5042159;28;20045;-79
2022/12/29 01:15:35;;;;;;;4.93;0.70;;;;;;;9.09;93.96;99819.75;5039247;28;20037;-78
2022/12/29 01:18:00;;;;;;;4.70;0.90;;;;;;;9.14;93.52;99832.84;5041814;28;20040;-80
2022/12/29 01:20:27;;;;;;;3.35;0.90;;;;;;;9.12;94.53;99835.50;5041164;28;20029;-79
2022/12/29 01:22:52;;;;;;;3.40;0.40;;;;;;;9.14;95.03;99825.84;5024812;28;20065;-79
2022/12/29 01:25:19;;;;;;;2.67;0.70;;;;;;;9.13;94.99;99833.75;5041063;28;20033;-79
2022/12/29 01:27:44;;;;;;;1.73;0.70;;;;;;;9.12;95.86;99832.88;5057546;28;20178;-78
2022/12/29 01:30:11;;;;;;;2.70;0.70;;;;;;;9.10;96.42;99826.75;5039329;28;20496;-79
2022/12/29 01:32:37;;;;;;;1.60;0.55;;;;;;;9.06;96.54;99817.13;5046208;28;20056;-78
2022/12/29 01:35:02;;;;;;;2.13;0.73;;;;;;;9.07;97.26;99816.25;5043654;28;20377;-80
2022/12/29 01:37:28;;;;;;;2.72;1.00;;;;;;;9.07;97.86;99804.88;5045410;28;20506;-79
2022/12/29 01:39:53;;;;;;;1.75;0.55;;;;;;;9.10;97.32;99810.09;5043596;28;20574;-79
2022/12/29 01:42:22;;;;;;;2.85;0.50;;;;;;;9.13;97.23;99803.03;5046208;28;20067;-80
2022/12/29 01:44:53;;;;;;;1.77;0.43;;;;;;;9.16;97.18;99808.25;5043857;28;20033;-79
2022/12/29 01:47:38;;;;;;;2.60;0.60;;;;;;;9.19;96.97;99813.47;5041874;28;20060;-79
2022/12/29 01:50:28;;;;;;;1.10;0.47;;;;;;;9.20;97.36;99807.34;5044397;28;20029;-79
2022/12/29 01:53:17;;;;;;;1.02;0.43;;;;;;;9.28;96.65;99814.28;5038335;28;20033;-78
2022/12/29 01:55:51;;;;;;;3.97;0.73;;;;;;;9.30;96.21;99813.38;5024346;28;20117;-79
2022/12/29 01:58:19;;;;;;;1.30;0.52;;;;;;;9.31;95.74;99814.22;5044819;28;20035;-80
2022/12/29 02:00:45;;;;;;;3.67;0.80;;;;;;;9.41;95.55;99813.22;5046664;28;20510;-79
2022/12/29 02:03:11;;;;;;;1.83;0.60;;;;;;;9.43;95.29;99819.31;5039591;28;20056;-79
2022/12/29 02:05:44;;;;;;;1.52;0.50;;;;;;;9.47;95.30;99810.50;5043703;28;20404;-79
2022/12/29 02:08:12;;;;;;;2.28;0.73;;;;;;;9.42;95.25;99817.59;5045297;28;20514;-80
2022/12/29 02:10:40;;;;;;;2.15;0.60;;;;;;;9.48;94.56;99801.69;5041900;28;20496;-78
2022/12/29 02:13:05;;;;;;;3.08;0.85;;;;;;;9.54;93.85;99799.00;5045394;28;20506;-79
2022/12/29 02:16:09;;;;;;;1.35;0.60;;;;;;;9.59;94.28;99799.81;5027629;28;20037;-78
2022/12/29 02:18:46;;;;;;;1.77;0.60;;;;;;;9.65;93.77;99797.06;5043426;28;20056;-78
2022/12/29 02:21:29;;;;;;;1.23;0.50;;;;;;;9.69;93.97;99791.75;5043984;28;20186;-79
2022/12/29 02:24:13;;;;;;;1.92;0.77;;;;;;;9.64;93.96;99797.97;5045175;28;20036;-79
2022/12/29 02:27:00;;;;;;;0.95;0.47;;;;;;;9.65;93.87;99804.97;5044609;28;20360;-79
2022/12/29 02:29:45;;;;;;;5.95;0.75;;;;;;;9.63;93.99;99785.69;5045403;28;20535;-79
2022/12/29 02:32:19;;;;;;;2.88;0.60;;;;;;;9.63;94.40;99782.19;5042822;28;20044;-79
2022/12/29 02:35:10;;;;;;;2.25;0.57;;;;;;;9.61;94.48;99790.09;5044535;28;20036;-79
2022/12/29 02:37:44;;;;;;;2.28;0.80;;;;;;;9.70;94.07;99789.13;5043837;28;20032;-79
2022/12/29 02:40:30;;;;;;;4.15;0.85;;;;;;;9.74;93.75;99797.84;5042974;28;20036;-79
2022/12/29 02:43:08;;;;;;;1.48;0.60;;;;;;;9.69;93.53;99791.75;5043081;28;20044;-78
2022/12/29 02:45:58;;;;;;;1.52;0.57;;;;;;;9.70;93.19;99797.03;5039349;28;20045;-79
2022/12/29 02:48:41;;;;;;;2.55;0.75;;;;;;;9.73;93.27;99796.09;5044742;28;20033;-79
2022/12/29 02:51:20;;;;;;;4.00;1.55;;;;;;;9.77;92.90;99797.78;5044598;28;20033;-79
2022/12/29 02:56:30;;;;;;;2.72;0.80;;;;;;;9.83;91.84;99797.72;5038452;28;20038;-79
2022/12/29 02:58:55;;;;;;;1.90;0.60;;;;;;;9.86;92.09;99789.75;5044779;28;20033;-79
2022/12/29 03:02:18;;;;;;;1.83;0.60;;;;;;;9.87;91.19;99784.44;5041800;28;20086;-79
2022/12/29 03:05:12;;;;;;;1.05;0.50;;;;;;;9.88;91.64;99785.34;5044068;28;20631;-78
2022/12/29 03:08:00;;;;;;;2.33;1.20;;;;;;;9.92;90.83;99792.28;5045203;28;20045;-79
2022/12/29 03:10:42;;;;;;;1.65;0.50;;;;;;;9.97;89.69;99789.59;5044340;28;20380;-79
2022/12/29 03:16:23;;;;;;;4.95;1.25;;;;;;;10.15;86.91;99772.63;5043617;28;20071;-78
2022/12/29 03:19:19;;;;;;;4.22;0.80;;;;;;;10.26;85.77;99774.16;5039655;28;20037;-79
2022/12/29 03:24:44;;;;;;;1.52;0.50;;;;;;;10.50;83.71;99759.69;5040763;28;20085;-79
2022/12/29 03:27:16;;;;;;;3.05;0.50;;;;;;;10.52;82.66;99760.53;5025134;28;20033;-78
2022/12/29 03:29:52;;;;;;;3.53;0.80;;;;;;;10.62;83.34;99757.75;5025266;28;20033;-79
2022/12/29 03:32:20;;;;;;;3.38;0.93;;;;;;;10.56;83.00;99749.94;5025787;28;20120;-79
2022/12/29 03:34:48;;;;;;;3.95;0.88;;;;;;;10.55;82.88;99750.84;5043516;28;20032;-79
2022/12/29 03:37:18;;;;;;;3.45;1.13;;;;;;;10.51;82.39;99740.34;5023111;28;20053;-79
2022/12/29 03:39:44;;;;;;;3.00;0.90;;;;;;;10.52;82.91;99752.63;5026275;28;20530;-79
2022/12/29 03:42:22;;;;;;;2.58;0.80;;;;;;;10.55;82.89;99735.00;5040529;28;20025;-80
2022/12/29 03:44:47;;;;;;;1.60;0.57;;;;;;;10.55;82.73;99748.19;5037050;28;20037;-79
2022/12/29 03:47:14;;;;;;;2.42;0.70;;;;;;;10.59;82.81;99736.72;5043253;28;20033;-79
2022/12/29 03:49:41;;;;;;;3.67;0.60;;;;;;;10.56;81.89;99742.00;5041621;28;20224;-79
2022/12/29 03:52:07;;;;;;;3.50;0.98;;;;;;;10.61;82.02;99742.78;5041771;28;20037;-78
2022/12/29 03:54:38;;;;;;;2.05;0.50;;;;;;;10.63;82.11;99739.22;5040674;28;20139;-78
2022/12/29 03:57:04;;;;;;;2.20;0.90;;;;;;;10.60;82.14;99739.28;5042810;28;20025;-78
2022/12/29 03:59:42;;;;;;;2.70;0.80;;;;;;;10.66;81.69;99743.59;5043746;28;20034;-80
2022/12/29 04:02:07;;;;;;;3.50;1.17;;;;;;;10.67;81.77;99743.56;5060237;28;20036;-79
2022/12/29 04:04:33;;;;;;;1.20;0.43;;;;;;;10.73;81.33;99739.94;5040132;28;20036;-79
2022/12/29 04:06:58;;;;;;;1.67;0.70;;;;;;;10.75;81.75;99743.41;5069277;22;20052;-75
2022/12/29 04:09:23;;;;;;;3.20;0.60;;;;;;;10.81;81.21;99748.56;5071322;28;20117;-74
2022/12/29 04:11:49;;;;;;;2.70;0.80;;;;;;;10.85;81.29;99741.47;5069635;28;20032;-75
2022/12/29 04:14:15;;;;;;;3.42;0.80;;;;;;;10.84;81.07;99732.66;5068058;28;20032;-75
2022/12/29 04:16:41;;;;;;;0.98;0.60;;;;;;;10.88;81.14;99738.78;5082399;28;20115;-75
2022/12/29 04:19:07;;;;;;;2.05;0.95;;;;;;;10.90;81.25;99744.91;5054834;28;20108;-75
2022/12/29 04:21:34;;;;;;;3.28;0.60;;;;;;;10.95;80.99;99746.53;5060766;28;20040;-75
2022/12/29 04:23:59;;;;;;;3.55;0.80;;;;;;;10.99;81.08;99752.63;5061676;28;20037;-74
2022/12/29 04:26:25;;;;;;;1.30;0.60;;;;;;;10.98;80.01;99740.34;5059113;28;20514;-75
2022/12/29 04:29:08;;;;;;;2.65;0.60;;;;;;;11.04;81.04;99744.63;5058011;28;20117;-75
2022/12/29 04:31:41;;;;;;;1.55;0.70;;;;;;;11.01;80.84;99745.53;5060136;28;20032;-75
2022/12/29 04:34:07;;;;;;;1.73;0.70;;;;;;;11.07;80.83;99747.19;5062636;28;20028;-75
2022/12/29 04:36:32;;;;;;;1.30;0.50;;;;;;;11.07;80.83;99739.25;5042489;28;20036;-75
2022/12/29 04:38:58;;;;;;;1.55;0.50;;;;;;;11.12;80.89;99742.69;5060615;28;20475;-75
2022/12/29 04:41:24;;;;;;;2.88;0.60;;;;;;;11.13;80.94;99744.41;5044130;28;20041;-76
2022/12/29 04:43:49;;;;;;;2.33;0.80;;;;;;;11.15;81.18;99742.59;5059542;28;20116;-76
2022/12/29 04:46:32;;;;;;;1.98;0.75;;;;;;;11.17;81.62;99740.81;5056354;28;20032;-75
2022/12/29 04:49:04;;;;;;;3.38;0.55;;;;;;;11.15;81.37;99747.88;5059188;28;20033;-74
2022/12/29 04:52:08;;;;;;;2.28;1.02;;;;;;;11.09;81.37;99748.03;4999911;28;20042;-75
2022/12/29 04:54:34;;;;;;;2.45;0.52;;;;;;;11.15;81.20;99747.88;5019758;28;20049;-76
2022/12/29 04:57:10;;;;;;;1.77;0.95;;;;;;;11.17;81.71;99748.72;5018866;28;20037;-75
2022/12/29 04:59:37;;;;;;;2.13;0.60;;;;;;;11.14;81.29;99747.03;5060537;28;20032;-76
2022/12/29 05:02:03;;;;;;;1.60;0.57;;;;;;;11.17;81.47;99751.38;5060171;28;20033;-76
2022/12/29 05:04:29;;;;;;;2.38;0.50;;;;;;;11.17;81.47;99751.38;5059061;28;20039;-75
2022/12/29 05:06:55;;;;;;;2.35;0.60;;;;;;;11.21;81.80;99744.25;5045863;28;20414;-75
2022/12/29 05:09:20;;;;;;;0.95;0.50;;;;;;;11.14;81.99;99746.16;5061797;28;20438;-76
2022/12/29 05:11:46;;;;;;;2.70;0.57;;;;;;;11.14;82.23;99756.72;5042078;28;20038;-75
2022/12/29 05:14:11;;;;;;;2.78;0.80;;;;;;;11.14;82.43;99748.81;5064341;28;20461;-76
2022/12/29 05:16:37;;;;;;;5.35;0.98;;;;;;;11.08;82.23;99757.72;5063375;28;20033;-75
2022/12/29 05:19:02;;;;;;;5.15;0.80;;;;;;;11.07;82.55;99749.81;5064614;28;20033;-75
2022/12/29 05:21:30;;;;;;;2.90;0.80;;;;;;;11.10;82.74;99749.75;5065242;28;20033;-76
2022/12/29 05:23:57;;;;;;;1.60;0.60;;;;;;;11.07;83.24;99752.47;5060459;28;20576;-74
2022/12/29 05:26:23;;;;;;;3.58;0.40;;;;;;;11.03;83.08;99741.09;5064247;28;20078;-75
2022/12/29 05:29:10;;;;;;;1.38;0.52;;;;;;;11.06;82.90;99741.03;5058295;28;20029;-74
2022/12/29 05:31:35;;;;;;;1.42;0.70;;;;;;;11.09;83.52;99748.03;5064168;28;20086;-75
2022/12/29 05:34:02;;;;;;;1.38;0.38;;;;;;;11.02;83.87;99746.41;5066444;28;20032;-75
2022/12/29 05:36:28;;;;;;;2.65;0.73;;;;;;;10.99;84.35;99754.41;5062467;28;20024;-76
2022/12/29 05:38:58;;;;;;;4.88;0.60;;;;;;;11.06;83.76;99733.13;5058156;28;20038;-75
2022/12/29 05:41:23;;;;;;;2.05;0.80;;;;;;;11.00;83.80;99712.09;5064124;28;20546;-74
2022/12/29 05:44:07;;;;;;;1.85;0.60;;;;;;;11.03;83.69;99717.34;5065120;28;20052;-75
2022/12/29 05:46:53;;;;;;;2.28;0.90;;;;;;;11.02;84.13;99705.03;5063056;28;20033;-75
2022/12/29 05:49:36;;;;;;;1.90;0.63;;;;;;;10.99;84.60;99706.88;5061699;28;20055;-75
2022/12/29 05:52:18;;;;;;;2.53;0.50;;;;;;;10.96;84.82;99706.03;5058238;28;20128;-76
2022/12/29 05:54:44;;;;;;;1.52;0.68;;;;;;;10.92;84.71;99720.19;5062955;28;20059;-75
2022/12/29 05:57:12;;;;;;;2.72;0.73;;;;;;;10.91;85.36;99728.16;5063794;28;20033;-75
2022/12/29 05:59:39;;;;;;;1.75;0.63;;;;;;;10.89;85.07;99711.47;5060954;28;20052;-74
2022/12/29 06:02:05;;;;;;;2.00;0.57;;;;;;;10.88;85.18;99715.88;5058318;28;20102;-75
2022/12/29 06:04:31;;;;;;;2.25;0.60;;;;;;;10.93;84.79;99699.94;5066229;28;20498;-76
2022/12/29 06:06:56;;;;;;;1.80;0.63;;;;;;;10.96;84.77;99694.59;5045710;28;20521;-75
2022/12/29 06:09:31;;;;;;;1.95;0.55;;;;;;;11.01;84.22;99698.00;5061112;28;20037;-75
2022/12/29 06:11:57;;;;;;;3.83;0.80;;;;;;;10.96;83.71;99679.63;5040565;28;20523;-76
2022/12/29 06:14:22;;;;;;;3.90;1.05;;;;;;;11.00;83.59;99677.78;5059076;28;20032;-75
2022/12/29 06:16:47;;;;;;;2.30;0.70;;;;;;;10.95;83.88;99672.63;5045992;28;20402;-75
2022/12/29 06:19:13;;;;;;;2.47;0.60;;;;;;;10.94;83.40;99678.78;5045123;28;20033;-76
2022/12/29 06:21:39;;;;;;;2.85;0.68;;;;;;;10.88;84.21;99686.84;5061625;28;20031;-74
2022/12/29 06:24:05;;;;;;;2.75;0.80;;;;;;;10.85;84.57;99692.19;5061544;28;20040;-75
2022/12/29 06:26:31;;;;;;;2.90;0.70;;;;;;;10.74;85.33;99689.78;5056635;28;20068;-76
2022/12/29 06:28:56;;;;;;;3.47;0.60;;;;;;;10.64;85.91;99676.78;5063637;28;20032;-75
2022/12/29 06:31:22;;;;;;;2.38;0.65;;;;;;;10.63;85.41;99677.69;5062049;28;20037;-76
2022/12/29 06:33:47;;;;;;;2.15;0.52;;;;;;;10.61;85.89;99693.56;5062990;28;20028;-76
2022/12/29 06:36:13;;;;;;;2.35;0.60;;;;;;;10.58;85.81;99668.97;5061128;28;20029;-75
2022/12/29 06:38:38;;;;;;;2.15;0.50;;;;;;;10.52;86.24;99673.47;5047090;28;20449;-74
2022/12/29 06:41:04;;;;;;;4.80;0.75;;;;;;;10.51;86.36;99682.31;5060147;28;20060;-75
2022/12/29 06:43:48;;;;;;;1.35;0.50;;;;;;;10.52;86.36;99694.59;5059959;28;20047;-76
2022/12/29 06:46:18;;;;;;;1.88;1.08;;;;;;;10.47;86.68;99685.88;5055045;28;20120;-76
2022/12/29 06:48:44;;;;;;;2.15;0.77;;;;;;;10.51;86.34;99682.31;5064121;28;20047;-76
2022/12/29 06:51:09;;;;;;;2.42;0.80;;;;;;;10.51;86.93;99686.72;5062106;28;20044;-76
2022/12/29 06:53:34;;;;;;;3.20;0.60;;;;;;;10.57;86.18;99693.63;5063901;28;20403;-74
2022/12/29 06:56:00;;;;;;;1.88;0.75;;;;;;;10.59;86.55;99694.50;5061934;28;20478;-76
2022/12/29 06:58:25;;;;;;;3.33;0.70;;;;;;;10.53;86.68;99692.81;5063343;28;20040;-75
2022/12/29 07:00:50;;;;;;;3.65;0.68;;;;;;;10.53;86.96;99695.44;5060935;28;20048;-74
2022/12/29 07:03:16;;;;;;;3.13;0.80;;;;;;;10.52;87.01;99705.13;5059067;28;20430;-76
2022/12/29 07:05:41;;;;;;;2.70;0.80;;;;;;;10.56;86.59;99707.72;5061126;28;20037;-75
2022/12/29 07:08:07;;;;;;;3.03;0.80;;;;;;;10.54;86.87;99713.03;5063066;28;20154;-74
2022/12/29 07:10:32;;;;;;;4.00;0.88;;;;;;;10.53;86.84;99714.81;5062637;28;20045;-75
2022/12/29 07:12:57;;;;;;;2.90;0.85;;;;;;;10.58;87.01;99727.03;5064324;28;20028;-75
2022/12/29 07:15:23;;;;;;;1.88;0.80;;;;;;;10.60;86.77;99722.59;5059609;28;20045;-76
2022/12/29 07:17:49;;;;;;;2.80;1.13;;;;;;;10.57;86.40;99722.66;5063853;28;20525;-76
2022/12/29 07:20:14;;;;;;;2.08;0.80;;;;;;;10.65;86.45;99723.38;5061018;28;20040;-75
2022/12/29 07:22:40;;;;;;;3.60;0.93;;;;;;;10.64;86.41;99719.03;5062878;28;20040;-75
2022/12/29 07:25:05;;;;;;;1.25;0.68;;;;;;;10.66;86.43;99718.09;5062480;28;20086;-74
2022/12/29 07:27:30;;;;;;;1.33;0.60;;;;;;;10.69;86.57;99727.72;5062167;28;20048;-75
2022/12/29 07:29:56;;;;;;;1.42;0.75;;;;;;;10.63;87.11;99709.34;5060667;28;20076;-75
2022/12/29 07:32:21;;;;;;;3.22;0.95;;;;;;;10.63;86.80;99706.69;5063252;28;20039;-75
2022/12/29 07:34:47;;;;;;;3.13;1.08;;;;;;;10.59;87.28;99712.97;5061300;28;20416;-76
2022/12/29 07:37:14;;;;;;;3.97;0.52;;;;;;;10.62;87.79;99719.03;5060613;28;20037;-76
2022/12/29 07:39:39;;;;;;;2.17;0.73;;;;;;;10.75;86.93;99717.03;5062171;28;20036;-75
2022/12/29 07:42:05;;;;;;;1.42;0.55;;;;;;;10.83;86.55;99712.47;5062285;28;20071;-76
2022/12/29 07:44:37;;;;;;;3.28;0.88;;;;;;;10.81;86.91;99716.91;5058861;28;20127;-76
2022/12/29 07:47:15;;;;;;;1.90;0.80;;;;;;;10.83;87.40;99727.44;5061165;28;20031;-76
2022/12/29 07:49:40;;;;;;;2.72;0.70;;;;;;;10.78;87.35;99721.38;5062663;28;20040;-74
2022/12/29 07:52:05;;;;;;;2.67;1.00;;;;;;;10.74;87.83;99717.91;5060221;28;20048;-75
2022/12/29 07:54:31;;;;;;;1.17;0.60;;;;;;;10.69;87.97;99720.66;5061845;28;20044;-75
2022/12/29 07:56:57;;;;;;;1.52;0.50;;;;;;;10.68;88.64;99725.97;5062443;28;20032;-74
2022/12/29 07:59:22;;;;;;;2.33;0.60;;;;;;;10.62;89.11;99726.94;5061049;28;20036;-75
2022/12/29 08:01:48;;;;;;;3.28;0.80;;;;;;;10.63;89.13;99733.09;5061618;28;20032;-76
2022/12/29 08:04:13;;;;;;;3.83;0.95;;;;;;;10.60;89.38;99733.16;5062502;28;20090;-75
2022/12/29 08:06:38;;;;;;;2.40;0.63;;;;;;;10.56;89.88;99752.56;5058250;28;20029;-76
2022/12/29 08:09:03;;;;;;;1.35;0.68;;;;;;;10.53;90.03;99759.66;5063155;28;20094;-75
2022/12/29 08:11:29;;;;;;;2.20;0.70;;;;;;;10.51;89.98;99764.09;5059488;28;20070;-74
2022/12/29 08:13:54;;;;;;;1.85;0.70;;;;;;;10.47;90.34;99753.63;5062319;28;20037;-75
2022/12/29 08:16:20;;;;;;;3.80;0.85;;;;;;;10.42;90.83;99755.47;5060179;28;20041;-76
2022/12/29 08:18:45;;;;;;;1.30;0.65;;;;;;;10.47;90.91;99762.41;5061631;28;20119;-75
2022/12/29 08:21:10;;;;;;;4.10;0.70;;;;;;;10.52;90.90;99751.75;5042574;28;20119;-74
2022/12/29 08:23:36;;;;;;;5.25;0.75;;;;;;;10.59;90.69;99755.19;5060649;28;20035;-75
2022/12/29 08:26:04;;;;;;;0.85;0.40;;;;;;;10.71;90.55;99742.59;5062474;28;20166;-75
2022/12/29 08:28:30;;;;;;;4.30;0.57;;;;;;;10.79;90.32;99745.09;5060246;28;20484;-76
2022/12/29 08:31:00;;;;;;;1.50;0.47;;;;;;;10.90;89.73;99745.75;5061408;28;20048;-74
2022/12/29 08:33:26;;;;;;;2.35;0.40;;;;;;;10.96;89.39;99742.13;5061776;28;20036;-75
2022/12/29 08:35:51;;;;;;;1.77;0.50;;;;;;;11.02;88.88;99749.03;5061329;28;20059;-75
2022/12/29 08:38:17;;;;;;;2.05;0.60;;;;;;;11.03;88.25;99749.03;5054501;28;20048;-76
2022/12/29 08:40:43;;;;;;;4.53;0.65;;;;;;;11.02;87.97;99757.84;5061559;28;20111;-74
2022/12/29 08:43:09;;;;;;;1.92;0.60;;;;;;;11.17;87.31;99754.00;5060421;28;20484;-76
2022/12/29 08:45:34;;;;;;;1.88;0.90;;;;;;;11.22;86.97;99762.72;5060375;28;20405;-76
2022/12/29 08:48:00;;;;;;;1.27;0.47;;;;;;;11.31;86.16;99754.56;5061705;28;20025;-76
2022/12/29 08:50:25;;;;;;;1.38;0.57;;;;;;;11.33;86.02;99747.50;5057662;28;20453;-75
2022/12/29 08:52:50;;;;;;;3.08;0.47;;;;;;;11.25;86.19;99744.16;5062671;28;20548;-75
2022/12/29 08:55:16;;;;;;;2.55;0.50;;;;;;;11.12;86.54;99747.97;5061968;28;20032;-75
2022/12/29 08:57:41;;;;;;;1.70;0.47;;;;;;;11.07;86.62;99742.75;5058697;28;20486;-74
2022/12/29 09:00:14;;;;;;;2.55;0.98;;;;;;;11.08;86.46;99726.03;5058779;28;20029;-73
2022/12/29 09:02:40;;;;;;;3.40;1.13;;;;;;;11.03;86.91;99727.00;5054656;28;20040;-76
2022/12/29 09:05:05;;;;;;;2.33;0.70;;;;;;;11.03;86.87;99732.28;5061046;28;20056;-75
2022/12/29 09:07:31;;;;;;;1.80;0.52;;;;;;;11.03;86.70;99727.00;5059583;28;20033;-76
2022/12/29 09:09:56;;;;;;;1.80;0.50;;;;;;;10.95;87.17;99729.81;5061278;28;20102;-76
2022/12/29 09:12:21;;;;;;;3.05;0.60;;;;;;;10.91;86.79;99734.28;5059515;28;20041;-75
2022/12/29 09:14:47;;;;;;;1.48;0.47;;;;;;;10.94;86.22;99728.94;5062786;28;20040;-76
2022/12/29 09:19:56;;;;;;;2.25;0.50;;;;;;;10.93;86.31;99752.75;5059633;28;20072;-75
2022/12/29 09:22:22;;;;;;;2.72;0.65;;;;;;;10.94;86.28;99752.69;5059496;28;20060;-75
2022/12/29 09:24:47;;;;;;;1.42;0.52;;;;;;;11.01;85.47;99749.97;5061735;28;20399;-74
2022/12/29 09:27:13;;;;;;;1.80;0.50;;;;;;;11.03;85.20;99758.69;5061773;28;20445;-76
2022/12/29 09:29:38;;;;;;;2.40;0.63;;;;;;;11.08;84.88;99756.84;5058582;28;20045;-76
2022/12/29 09:32:03;;;;;;;2.25;0.50;;;;;;;11.17;84.48;99751.38;5061070;28;20466;-75
2022/12/29 09:34:29;;;;;;;2.35;0.90;;;;;;;11.25;83.44;99753.84;5060384;28;20572;-75
2022/12/29 09:36:55;;;;;;;2.45;0.70;;;;;;;11.39;82.95;99755.28;5044131;28;20033;-75
2022/12/29 09:39:21;;;;;;;1.77;1.00;;;;;;;11.59;81.96;99754.84;5057682;28;20407;-75
2022/12/29 09:42:01;;;;;;;1.63;0.50;;;;;;;11.76;80.32;99753.56;5055009;28;20033;-76
2022/12/29 09:45:04;;;;;;;3.00;1.25;;;;;;;11.91;79.91;99753.25;5060544;28;20067;-75
2022/12/29 09:47:29;;;;;;;2.58;0.63;;;;;;;11.99;79.55;99745.13;5059101;28;20045;-76
2022/12/29 09:50:06;;;;;;;2.78;0.73;;;;;;;12.06;79.15;99744.94;5061020;28;20047;-75
2022/12/29 09:52:37;;;;;;;1.88;0.65;;;;;;;12.05;79.21;99742.34;5062973;28;20125;-75
2022/12/29 09:55:10;;;;;;;2.95;0.75;;;;;;;12.09;78.98;99754.59;5059996;28;20036;-76
2022/12/29 09:57:45;;;;;;;3.65;0.80;;;;;;;12.16;78.39;99737.66;5062830;28;20036;-75
2022/12/29 10:00:23;;;;;;;1.67;0.50;;;;;;;12.22;78.03;99742.78;5057838;28;20547;-74
2022/12/29 10:03:15;;;;;;;3.90;0.50;;;;;;;12.30;77.32;99731.16;5058211;28;20041;-76
2022/12/29 10:05:58;;;;;;;1.65;0.50;;;;;;;12.43;77.34;99745.78;5062851;28;20087;-75
2022/12/29 10:08:44;;;;;;;3.25;0.70;;;;;;;12.58;76.59;99732.16;5079987;23;20044;-78
2022/12/29 10:12:02;;;;;;;3.10;0.63;;;;;;;12.77;76.01;99732.50;5071575;28;20052;-78
2022/12/29 10:14:58;;;;;;;4.05;0.57;;;;;;;12.86;75.12;99726.06;5056094;28;20048;-77
2022/12/29 10:17:53;;;;;;;3.83;0.80;;;;;;;12.82;74.83;99720.00;5068654;28;20086;-78
2022/12/29 10:20:30;;;;;;;1.10;0.45;;;;;;;12.82;75.33;99722.66;5064876;28;20036;-78
2022/12/29 10:23:09;;;;;;;3.25;0.55;;;;;;;12.88;75.09;99726.91;5063820;28;20037;-78
2022/12/29 10:25:39;;;;;;;1.27;0.35;;;;;;;12.92;75.29;99716.19;5059413;28;20182;-78
2022/12/29 10:28:17;;;;;;;2.97;0.60;;;;;;;12.98;74.00;99714.28;5063327;28;20044;-78
2022/12/29 10:30:45;;;;;;;3.97;0.57;;;;;;;13.03;74.34;99707.06;5058051;28;20044;-78
2022/12/29 10:33:18;;;;;;;0.93;0.30;;;;;;;13.08;74.17;99708.66;5063975;28;20028;-78
2022/12/29 10:35:44;;;;;;;1.27;0.50;;;;;;;13.10;72.96;99703.34;5063756;28;20039;-78
2022/12/29 10:38:22;;;;;;;1.02;0.47;;;;;;;13.15;73.36;99685.50;5063662;28;20111;-78
2022/12/29 10:41:00;;;;;;;2.90;0.60;;;;;;;13.32;73.07;99687.69;5044465;28;20068;-78
2022/12/29 10:43:28;;;;;;;1.67;0.70;;;;;;;13.35;71.98;99684.94;5058238;28;20049;-78
2022/12/29 10:45:58;;;;;;;5.78;0.63;;;;;;;13.54;70.93;99699.31;5063278;28;20037;-78
2022/12/29 10:48:30;;;;;;;3.00;0.43;;;;;;;13.69;70.31;99694.47;5063788;28;20152;-78
2022/12/29 10:50:58;;;;;;;1.27;0.45;;;;;;;13.69;69.49;99687.38;5054438;28;20025;-78
2022/12/29 10:53:30;;;;;;;2.65;0.60;;;;;;;13.72;70.19;99689.06;5063824;28;20047;-78
2022/12/29 10:55:56;;;;;;;1.60;0.68;;;;;;;13.66;68.94;99700.75;5061919;28;20247;-78
2022/12/29 10:58:22;;;;;;;1.63;0.47;;;;;;;13.62;69.46;99688.47;5064293;28;20577;-78
2022/12/29 11:00:53;;;;;;;1.75;0.50;;;;;;;13.55;69.41;99695.78;5060937;28;20396;-76
2022/12/29 11:03:27;;;;;;;1.15;0.45;;;;;;;13.48;69.72;99673.03;5063073;28;20070;-78
2022/12/29 11:06:02;;;;;;;2.45;0.35;;;;;;;13.45;69.48;99677.56;5062308;28;20033;-78
2022/12/29 11:08:35;;;;;;;1.60;0.60;;;;;;;13.47;70.27;99670.44;5059236;28;20068;-78
2022/12/29 11:11:06;;;;;;;1.75;0.55;;;;;;;13.47;70.35;99676.59;5061498;28;20115;-78
2022/12/29 11:13:35;;;;;;;1.67;1.08;;;;;;;13.45;69.43;99667.81;5057577;28;20048;-78
2022/12/29 11:16:00;;;;;;;4.38;0.75;;;;;;;13.49;70.00;99666.81;5062589;28;20041;-78
2022/12/29 11:18:32;;;;;;;1.17;0.47;;;;;;;13.40;70.05;99653.00;5062781;28;20049;-78
2022/12/29 11:21:01;;;;;;;2.35;0.55;;;;;;;13.40;69.96;99645.03;5060813;28;20083;-78
2022/12/29 11:23:35;;;;;;;1.30;0.60;;;;;;;13.38;70.53;99650.38;5063532;28;20032;-78
2022/12/29 11:26:15;;;;;;;4.38;1.15;;;;;;;13.33;71.02;99642.56;5048724;28;20040;-78
2022/12/29 11:28:43;;;;;;;1.55;0.68;;;;;;;13.30;71.55;99641.81;5058735;28;20071;-78
2022/12/29 11:31:09;;;;;;;2.38;0.70;;;;;;;13.30;71.40;99637.34;5061406;28;20068;-78
2022/12/29 11:33:36;;;;;;;5.72;0.82;;;;;;;13.25;71.45;99641.91;5063162;28;20137;-78
2022/12/29 11:36:21;;;;;;;4.25;1.17;;;;;;;13.30;72.02;99645.31;5059861;28;20051;-78
2022/12/29 11:38:50;;;;;;;3.35;1.40;;;;;;;13.22;71.80;99635.84;5060819;28;20048;-78
2022/12/29 11:41:22;;;;;;;3.42;0.73;;;;;;;13.31;71.50;99644.41;5056492;28;20048;-78
2022/12/29 11:43:48;;;;;;;4.22;1.33;;;;;;;13.31;71.23;99635.59;5062098;28;20414;-78
2022/12/29 11:46:22;;;;;;;2.38;0.75;;;;;;;13.34;71.55;99644.31;5045670;28;20039;-78
2022/12/29 11:48:48;;;;;;;3.33;1.40;;;;;;;13.44;71.31;99646.66;5056615;28;20095;-78
2022/12/29 11:51:22;;;;;;;3.88;1.25;;;;;;;13.48;71.41;99645.66;5062619;28;20164;-78
2022/12/29 11:53:53;;;;;;;11.82;3.10;;;;;;;13.64;70.95;99646.03;5062589;28;20051;-78
2022/12/29 11:56:37;;;;;;;6.95;2.60;;;;;;;13.75;70.87;99643.88;5055678;28;20045;-78
2022/12/29 11:59:34;;;;;;;5.15;1.55;;;;;;;13.68;70.41;99653.84;5058988;28;20525;-78
2022/12/29 12:02:10;;;;;;;2.53;1.40;;;;;;;13.71;70.38;99652.88;5060455;28;20041;-78
2022/12/29 12:04:38;;;;;;;2.72;0.90;;;;;;;13.78;70.37;99654.38;5060804;28;20041;-78
2022/12/29 12:07:20;;;;;;;3.08;0.80;;;;;;;13.78;70.36;99654.38;5060794;28;20154;-78
2022/12/29 12:09:54;;;;;;;2.95;0.77;;;;;;;13.87;69.96;99667.34;5059398;28;20033;-78
2022/12/29 12:12:30;;;;;;;3.90;0.60;;;;;;;13.89;69.32;99646.09;5068618;28;20029;-78
2022/12/29 12:14:59;;;;;;;2.78;0.82;;;;;;;13.92;69.45;99630.91;5059391;28;20029;-78
2022/12/29 12:18:08;;;;;;;2.15;0.32;;;;;;;14.01;69.07;99635.03;5060706;28;20044;-78
2022/12/29 12:20:51;;;;;;;1.98;0.40;;;;;;;13.95;69.21;99636.13;5060287;28;20040;-78
2022/12/29 12:23:30;;;;;;;2.22;0.60;;;;;;;14.09;68.89;99632.97;5058510;28;20037;-78
2022/12/29 12:25:56;;;;;;;0.95;0.40;;;;;;;14.10;68.85;99644.47;5059149;28;20397;-78
2022/12/29 12:28:57;;;;;;;1.33;0.52;;;;;;;14.06;69.39;99629.56;5060163;28;20036;-78
2022/12/29 12:31:54;;;;;;;1.45;0.65;;;;;;;13.94;69.48;99644.16;5060131;28;20439;-78